sensor_id;sensor_type;location;lat;lon;timestamp;temperature;humidity
52725;DHT22;38621;52.830;6.914;2023-04-03T00:01:09;1.90;99.90
52725;DHT22;38621;52.830;6.914;2023-04-03T00:03:35;1.80;99.90
52725;DHT22;38621;52.830;6.914;2023-04-03T00:06:01;1.80;99.90
52725;DHT22;38621;52.830;6.914;2023-04-03T00:08:27;1.80;99.90
52725;DHT22;38621;52.830;6.914;2023-04-03T00:10:52;1.80;99.90
52725;DHT22;38621;52.830;6.914;2023-04-03T00:13:18;1.80;99.90
52725;DHT22;38621;52.830;6.914;2023-04-03T00:15:44;1.70;99.90
52725;DHT22;38621;52.830;6.914;2023-04-03T00:18:10;1.70;99.90
52725;DHT22;38621;52.830;6.914;2023-04-03T00:20:35;1.70;99.90
52725;DHT22;38621;52.830;6.914;2023-04-03T00:23:02;1.70;99.90
52725;DHT22;38621;52.830;6.914;2023-04-03T00:25:28;1.70;99.90
52725;DHT22;38621;52.830;6.914;2023-04-03T00:27:54;1.80;99.90
52725;DHT22;38621;52.830;6.914;2023-04-03T00:30:21;1.70;99.90
52725;DHT22;38621;52.830;6.914;2023-04-03T00:32:51;1.80;99.90
52725;DHT22;38621;52.830;6.914;2023-04-03T00:35:18;2.00;99.90
52725;DHT22;38621;52.830;6.914;2023-04-03T00:37:44;1.80;99.90
52725;DHT22;38621;52.830;6.914;2023-04-03T00:40:12;1.80;99.90
52725;DHT22;38621;52.830;6.914;2023-04-03T00:42:40;1.80;99.90
52725;DHT22;38621;52.830;6.914;2023-04-03T00:47:32;1.80;99.90
52725;DHT22;38621;52.830;6.914;2023-04-03T00:49:58;1.80;99.90
52725;DHT22;38621;52.830;6.914;2023-04-03T00:52:28;1.80;99.90
52725;DHT22;38621;52.830;6.914;2023-04-03T00:54:58;1.80;99.90
52725;DHT22;38621;52.830;6.914;2023-04-03T00:57:25;2.60;99.90
52725;DHT22;38621;52.830;6.914;2023-04-03T00:59:55;1.80;99.90
52725;DHT22;38621;52.830;6.914;2023-04-03T01:02:23;1.90;99.90
52725;DHT22;38621;52.830;6.914;2023-04-03T01:04:49;1.80;99.90
52725;DHT22;38621;52.830;6.914;2023-04-03T01:07:33;1.80;99.90
52725;DHT22;38621;52.830;6.914;2023-04-03T01:10:05;1.80;99.90
52725;DHT22;38621;52.830;6.914;2023-04-03T01:12:40;1.80;99.90
52725;DHT22;38621;52.830;6.914;2023-04-03T01:17:47;1.70;99.90
52725;DHT22;38621;52.830;6.914;2023-04-03T01:23:06;1.70;99.90
52725;DHT22;38621;52.830;6.914;2023-04-03T01:25:33;1.70;99.90
52725;DHT22;38621;52.830;6.914;2023-04-03T01:27:59;2.30;99.90
52725;DHT22;38621;52.830;6.914;2023-04-03T01:30:31;1.60;99.90
52725;DHT22;38621;52.830;6.914;2023-04-03T01:32:57;2.30;99.90
52725;DHT22;38621;52.830;6.914;2023-04-03T01:35:22;1.50;99.90
52725;DHT22;38621;52.830;6.914;2023-04-03T01:37:48;1.70;99.90
52725;DHT22;38621;52.830;6.914;2023-04-03T01:40:14;1.60;99.90
52725;DHT22;38621;52.830;6.914;2023-04-03T01:42:40;1.50;99.90
52725;DHT22;38621;52.830;6.914;2023-04-03T01:45:06;1.50;99.90
52725;DHT22;38621;52.830;6.914;2023-04-03T01:47:32;1.50;99.90
52725;DHT22;38621;52.830;6.914;2023-04-03T01:49:58;1.90;99.90
52725;DHT22;38621;52.830;6.914;2023-04-03T01:52:23;1.50;99.90
52725;DHT22;38621;52.830;6.914;2023-04-03T01:54:49;1.50;99.90
52725;DHT22;38621;52.830;6.914;2023-04-03T01:57:16;1.40;99.90
52725;DHT22;38621;52.830;6.914;2023-04-03T01:59:42;1.40;99.90
52725;DHT22;38621;52.830;6.914;2023-04-03T02:02:07;1.40;99.90
52725;DHT22;38621;52.830;6.914;2023-04-03T02:04:33;2.00;99.90
52725;DHT22;38621;52.830;6.914;2023-04-03T02:06:59;1.40;99.90
52725;DHT22;38621;52.830;6.914;2023-04-03T02:09:25;1.30;99.90
52725;DHT22;38621;52.830;6.914;2023-04-03T02:11:52;1.30;99.90
52725;DHT22;38621;52.830;6.914;2023-04-03T02:14:18;1.30;99.90
52725;DHT22;38621;52.830;6.914;2023-04-03T02:16:43;1.70;99.90
52725;DHT22;38621;52.830;6.914;2023-04-03T02:19:09;1.30;99.90
52725;DHT22;38621;52.830;6.914;2023-04-03T02:21:35;1.70;99.90
52725;DHT22;38621;52.830;6.914;2023-04-03T02:24:01;2.00;99.90
52725;DHT22;38621;52.830;6.914;2023-04-03T02:26:26;1.20;99.90
52725;DHT22;38621;52.830;6.914;2023-04-03T02:28:52;1.20;99.90
52725;DHT22;38621;52.830;6.914;2023-04-03T02:31:18;1.20;99.90
52725;DHT22;38621;52.830;6.914;2023-04-03T02:33:44;1.50;99.90
52725;DHT22;38621;52.830;6.914;2023-04-03T02:36:10;1.20;99.90
52725;DHT22;38621;52.830;6.914;2023-04-03T02:38:35;1.70;99.90
52725;DHT22;38621;52.830;6.914;2023-04-03T02:41:02;1.20;99.90
52725;DHT22;38621;52.830;6.914;2023-04-03T02:43:28;1.20;99.90
52725;DHT22;38621;52.830;6.914;2023-04-03T02:45:54;1.10;99.90
52725;DHT22;38621;52.830;6.914;2023-04-03T02:48:20;1.60;99.90
52725;DHT22;38621;52.830;6.914;2023-04-03T02:50:45;1.00;99.90
52725;DHT22;38621;52.830;6.914;2023-04-03T02:53:11;1.00;99.90
52725;DHT22;38621;52.830;6.914;2023-04-03T02:55:37;0.90;99.90
52725;DHT22;38621;52.830;6.914;2023-04-03T02:58:02;0.90;99.90
52725;DHT22;38621;52.830;6.914;2023-04-03T03:00:29;0.80;99.90
52725;DHT22;38621;52.830;6.914;2023-04-03T03:02:55;0.80;99.90
52725;DHT22;38621;52.830;6.914;2023-04-03T03:05:20;0.70;99.90
52725;DHT22;38621;52.830;6.914;2023-04-03T03:07:47;0.70;99.90
52725;DHT22;38621;52.830;6.914;2023-04-03T03:10:13;0.70;99.90
52725;DHT22;38621;52.830;6.914;2023-04-03T03:12:39;0.70;99.90
52725;DHT22;38621;52.830;6.914;2023-04-03T03:15:06;0.80;99.90
52725;DHT22;38621;52.830;6.914;2023-04-03T03:17:32;0.60;99.90
52725;DHT22;38621;52.830;6.914;2023-04-03T03:19:58;0.80;99.90
52725;DHT22;38621;52.830;6.914;2023-04-03T03:22:24;0.70;99.90
52725;DHT22;38621;52.830;6.914;2023-04-03T03:24:49;0.80;99.90
52725;DHT22;38621;52.830;6.914;2023-04-03T03:27:15;0.70;99.90
52725;DHT22;38621;52.830;6.914;2023-04-03T03:29:42;0.50;99.90
52725;DHT22;38621;52.830;6.914;2023-04-03T03:32:07;0.50;99.90
52725;DHT22;38621;52.830;6.914;2023-04-03T03:34:33;0.40;99.90
52725;DHT22;38621;52.830;6.914;2023-04-03T03:36:59;0.30;99.90
52725;DHT22;38621;52.830;6.914;2023-04-03T03:39:25;0.20;99.90
52725;DHT22;38621;52.830;6.914;2023-04-03T03:41:50;0.20;99.90
52725;DHT22;38621;52.830;6.914;2023-04-03T03:44:19;0.20;99.90
52725;DHT22;38621;52.830;6.914;2023-04-03T03:46:44;0.20;99.90
52725;DHT22;38621;52.830;6.914;2023-04-03T03:49:10;0.10;99.90
52725;DHT22;38621;52.830;6.914;2023-04-03T03:51:37;0.30;99.90
52725;DHT22;38621;52.830;6.914;2023-04-03T03:54:03;0.00;99.90
52725;DHT22;38621;52.830;6.914;2023-04-03T03:56:30;0.00;99.90
52725;DHT22;38621;52.830;6.914;2023-04-03T03:58:56;0.00;99.90
52725;DHT22;38621;52.830;6.914;2023-04-03T04:01:23;0.00;99.90
52725;DHT22;38621;52.830;6.914;2023-04-03T04:03:48;0.00;99.90
52725;DHT22;38621;52.830;6.914;2023-04-03T04:06:14;-0.10;99.90
52725;DHT22;38621;52.830;6.914;2023-04-03T04:08:40;-0.10;99.90
52725;DHT22;38621;52.830;6.914;2023-04-03T04:11:06;0.00;99.90
52725;DHT22;38621;52.830;6.914;2023-04-03T04:13:32;-0.10;99.90
52725;DHT22;38621;52.830;6.914;2023-04-03T04:15:58;-0.10;99.90
52725;DHT22;38621;52.830;6.914;2023-04-03T04:18:23;-0.10;99.90
52725;DHT22;38621;52.830;6.914;2023-04-03T04:20:49;0.00;99.90
52725;DHT22;38621;52.830;6.914;2023-04-03T04:23:17;0.30;99.90
52725;DHT22;38621;52.830;6.914;2023-04-03T04:25:45;-0.20;99.90
52725;DHT22;38621;52.830;6.914;2023-04-03T04:28:11;-0.20;99.90
52725;DHT22;38621;52.830;6.914;2023-04-03T04:30:37;-0.20;99.90
52725;DHT22;38621;52.830;6.914;2023-04-03T04:33:03;-0.20;99.90
52725;DHT22;38621;52.830;6.914;2023-04-03T04:35:29;0.50;99.90
52725;DHT22;38621;52.830;6.914;2023-04-03T04:37:55;-0.20;99.90
52725;DHT22;38621;52.830;6.914;2023-04-03T04:40:20;-0.20;99.90
52725;DHT22;38621;52.830;6.914;2023-04-03T04:42:46;-0.20;99.90
52725;DHT22;38621;52.830;6.914;2023-04-03T04:45:12;-0.20;99.90
52725;DHT22;38621;52.830;6.914;2023-04-03T04:47:37;-0.20;99.90
52725;DHT22;38621;52.830;6.914;2023-04-03T04:50:04;-0.20;99.90
52725;DHT22;38621;52.830;6.914;2023-04-03T04:52:30;-0.20;99.90
52725;DHT22;38621;52.830;6.914;2023-04-03T04:54:55;0.40;99.90
52725;DHT22;38621;52.830;6.914;2023-04-03T04:57:21;-0.20;99.90
52725;DHT22;38621;52.830;6.914;2023-04-03T04:59:47;0.40;99.90
52725;DHT22;38621;52.830;6.914;2023-04-03T05:02:13;-0.20;99.90
52725;DHT22;38621;52.830;6.914;2023-04-03T05:04:38;-0.20;99.90
52725;DHT22;38621;52.830;6.914;2023-04-03T05:07:04;-0.20;99.90
52725;DHT22;38621;52.830;6.914;2023-04-03T05:09:30;-0.20;99.90
52725;DHT22;38621;52.830;6.914;2023-04-03T05:11:55;-0.30;99.90
52725;DHT22;38621;52.830;6.914;2023-04-03T05:14:22;0.00;99.90
52725;DHT22;38621;52.830;6.914;2023-04-03T05:16:47;-0.20;99.90
52725;DHT22;38621;52.830;6.914;2023-04-03T05:19:13;-0.30;99.90
52725;DHT22;38621;52.830;6.914;2023-04-03T05:21:39;0.00;99.90
52725;DHT22;38621;52.830;6.914;2023-04-03T05:24:05;-0.30;99.90
52725;DHT22;38621;52.830;6.914;2023-04-03T05:26:34;-0.30;99.90
52725;DHT22;38621;52.830;6.914;2023-04-03T05:29:00;-0.20;99.90
52725;DHT22;38621;52.830;6.914;2023-04-03T05:31:26;-0.20;99.90
52725;DHT22;38621;52.830;6.914;2023-04-03T05:33:55;-0.20;99.90
52725;DHT22;38621;52.830;6.914;2023-04-03T05:36:21;-0.20;99.90
52725;DHT22;38621;52.830;6.914;2023-04-03T05:38:47;-0.20;99.90
52725;DHT22;38621;52.830;6.914;2023-04-03T05:41:14;-0.20;99.90
52725;DHT22;38621;52.830;6.914;2023-04-03T05:43:40;0.20;99.90
52725;DHT22;38621;52.830;6.914;2023-04-03T05:46:13;-0.10;99.90
52725;DHT22;38621;52.830;6.914;2023-04-03T05:48:40;0.00;99.90
52725;DHT22;38621;52.830;6.914;2023-04-03T05:51:09;0.10;99.90
52725;DHT22;38621;52.830;6.914;2023-04-03T05:53:38;0.30;99.90
52725;DHT22;38621;52.830;6.914;2023-04-03T05:56:04;0.10;99.90
52725;DHT22;38621;52.830;6.914;2023-04-03T05:58:30;0.20;99.90
52725;DHT22;38621;52.830;6.914;2023-04-03T06:00:56;0.20;99.90
52725;DHT22;38621;52.830;6.914;2023-04-03T06:03:22;0.20;99.90
52725;DHT22;38621;52.830;6.914;2023-04-03T06:05:48;0.30;99.90
52725;DHT22;38621;52.830;6.914;2023-04-03T06:08:14;0.50;99.90
52725;DHT22;38621;52.830;6.914;2023-04-03T06:10:40;0.30;99.90
52725;DHT22;38621;52.830;6.914;2023-04-03T06:13:06;0.40;99.90
52725;DHT22;38621;52.830;6.914;2023-04-03T06:15:31;0.60;99.90
52725;DHT22;38621;52.830;6.914;2023-04-03T06:17:57;0.50;99.90
52725;DHT22;38621;52.830;6.914;2023-04-03T06:20:23;0.60;99.90
52725;DHT22;38621;52.830;6.914;2023-04-03T06:22:49;0.70;99.90
52725;DHT22;38621;52.830;6.914;2023-04-03T06:25:14;0.70;99.90
52725;DHT22;38621;52.830;6.914;2023-04-03T06:27:42;0.80;99.90
52725;DHT22;38621;52.830;6.914;2023-04-03T06:30:08;1.70;99.90
52725;DHT22;38621;52.830;6.914;2023-04-03T06:32:34;1.00;99.90
52725;DHT22;38621;52.830;6.914;2023-04-03T06:35:00;1.10;99.90
52725;DHT22;38621;52.830;6.914;2023-04-03T06:37:26;1.20;99.90
52725;DHT22;38621;52.830;6.914;2023-04-03T06:39:53;1.30;99.90
52725;DHT22;38621;52.830;6.914;2023-04-03T06:42:19;1.40;99.90
52725;DHT22;38621;52.830;6.914;2023-04-03T06:44:44;1.50;99.90
52725;DHT22;38621;52.830;6.914;2023-04-03T06:47:14;1.60;99.90
52725;DHT22;38621;52.830;6.914;2023-04-03T06:49:41;1.70;99.90
52725;DHT22;38621;52.830;6.914;2023-04-03T06:52:07;2.00;99.90
52725;DHT22;38621;52.830;6.914;2023-04-03T06:54:33;2.40;99.90
52725;DHT22;38621;52.830;6.914;2023-04-03T06:56:59;2.00;99.90
52725;DHT22;38621;52.830;6.914;2023-04-03T06:59:25;2.80;99.90
52725;DHT22;38621;52.830;6.914;2023-04-03T07:01:51;2.10;99.90
52725;DHT22;38621;52.830;6.914;2023-04-03T07:04:17;3.10;99.90
52725;DHT22;38621;52.830;6.914;2023-04-03T07:06:43;2.30;99.90
52725;DHT22;38621;52.830;6.914;2023-04-03T07:09:10;2.40;99.90
52725;DHT22;38621;52.830;6.914;2023-04-03T07:11:36;2.60;99.90
52725;DHT22;38621;52.830;6.914;2023-04-03T07:14:02;2.80;99.90
52725;DHT22;38621;52.830;6.914;2023-04-03T07:16:28;2.80;99.90
52725;DHT22;38621;52.830;6.914;2023-04-03T07:18:56;2.90;99.90
52725;DHT22;38621;52.830;6.914;2023-04-03T07:21:22;3.00;99.90
52725;DHT22;38621;52.830;6.914;2023-04-03T07:23:48;3.10;99.90
52725;DHT22;38621;52.830;6.914;2023-04-03T07:26:14;3.20;99.90
52725;DHT22;38621;52.830;6.914;2023-04-03T07:28:40;3.30;99.90
52725;DHT22;38621;52.830;6.914;2023-04-03T07:31:09;3.50;99.90
52725;DHT22;38621;52.830;6.914;2023-04-03T07:33:37;3.50;99.90
52725;DHT22;38621;52.830;6.914;2023-04-03T07:36:04;3.50;99.90
52725;DHT22;38621;52.830;6.914;2023-04-03T07:38:30;3.60;99.90
52725;DHT22;38621;52.830;6.914;2023-04-03T07:40:56;3.80;99.90
52725;DHT22;38621;52.830;6.914;2023-04-03T07:43:22;4.10;99.90
52725;DHT22;38621;52.830;6.914;2023-04-03T07:45:50;3.90;99.90
52725;DHT22;38621;52.830;6.914;2023-04-03T07:48:18;3.90;99.90
52725;DHT22;38621;52.830;6.914;2023-04-03T07:50:44;4.10;99.90
52725;DHT22;38621;52.830;6.914;2023-04-03T07:53:10;4.10;99.90
52725;DHT22;38621;52.830;6.914;2023-04-03T07:55:36;4.20;99.90
52725;DHT22;38621;52.830;6.914;2023-04-03T07:58:12;4.30;99.90
52725;DHT22;38621;52.830;6.914;2023-04-03T08:00:38;4.30;99.90
52725;DHT22;38621;52.830;6.914;2023-04-03T08:03:05;4.50;99.90
52725;DHT22;38621;52.830;6.914;2023-04-03T08:05:36;4.80;99.90
52725;DHT22;38621;52.830;6.914;2023-04-03T08:08:01;4.60;99.90
52725;DHT22;38621;52.830;6.914;2023-04-03T08:10:29;4.70;99.90
52725;DHT22;38621;52.830;6.914;2023-04-03T08:12:55;4.80;99.90
52725;DHT22;38621;52.830;6.914;2023-04-03T08:15:21;5.00;99.90
52725;DHT22;38621;52.830;6.914;2023-04-03T08:17:47;5.10;99.90
52725;DHT22;38621;52.830;6.914;2023-04-03T08:20:12;5.10;99.90
52725;DHT22;38621;52.830;6.914;2023-04-03T08:22:38;5.20;99.90
52725;DHT22;38621;52.830;6.914;2023-04-03T08:25:04;5.30;99.90
52725;DHT22;38621;52.830;6.914;2023-04-03T08:27:30;5.30;99.90
52725;DHT22;38621;52.830;6.914;2023-04-03T08:29:56;5.50;99.90
52725;DHT22;38621;52.830;6.914;2023-04-03T08:32:22;5.50;99.90
52725;DHT22;38621;52.830;6.914;2023-04-03T08:34:48;5.60;99.90
52725;DHT22;38621;52.830;6.914;2023-04-03T08:37:14;5.70;99.90
52725;DHT22;38621;52.830;6.914;2023-04-03T08:39:42;5.80;99.90
52725;DHT22;38621;52.830;6.914;2023-04-03T08:42:19;5.90;99.90
52725;DHT22;38621;52.830;6.914;2023-04-03T08:45:01;6.00;99.90
52725;DHT22;38621;52.830;6.914;2023-04-03T08:47:49;6.10;99.90
52725;DHT22;38621;52.830;6.914;2023-04-03T08:50:26;6.20;99.90
52725;DHT22;38621;52.830;6.914;2023-04-03T08:52:57;6.20;99.90
52725;DHT22;38621;52.830;6.914;2023-04-03T08:55:34;6.40;99.90
52725;DHT22;38621;52.830;6.914;2023-04-03T08:58:09;6.50;99.90
52725;DHT22;38621;52.830;6.914;2023-04-03T09:00:47;6.70;99.90
52725;DHT22;38621;52.830;6.914;2023-04-03T09:03:19;6.80;99.90
52725;DHT22;38621;52.830;6.914;2023-04-03T09:06:00;6.80;99.90
52725;DHT22;38621;52.830;6.914;2023-04-03T09:08:45;6.80;99.90
52725;DHT22;38621;52.830;6.914;2023-04-03T09:14:12;6.90;99.90
52725;DHT22;38621;52.830;6.914;2023-04-03T09:16:53;7.10;99.90
52725;DHT22;38621;52.830;6.914;2023-04-03T09:21:48;7.40;99.90
52725;DHT22;38621;52.830;6.914;2023-04-03T09:24:16;7.40;99.90
52725;DHT22;38621;52.830;6.914;2023-04-03T09:26:53;7.50;99.90
52725;DHT22;38621;52.830;6.914;2023-04-03T09:29:23;7.70;99.90
52725;DHT22;38621;52.830;6.914;2023-04-03T09:32:00;7.80;99.90
52725;DHT22;38621;52.830;6.914;2023-04-03T09:34:27;7.90;99.90
52725;DHT22;38621;52.830;6.914;2023-04-03T09:36:55;7.90;99.90
52725;DHT22;38621;52.830;6.914;2023-04-03T09:39:27;8.00;99.90
52725;DHT22;38621;52.830;6.914;2023-04-03T09:44:28;8.30;99.90
52725;DHT22;38621;52.830;6.914;2023-04-03T09:46:55;8.40;99.90
52725;DHT22;38621;52.830;6.914;2023-04-03T09:49:21;8.50;99.90
52725;DHT22;38621;52.830;6.914;2023-04-03T09:51:46;8.70;99.90
52725;DHT22;38621;52.830;6.914;2023-04-03T09:57:01;8.90;99.90
52725;DHT22;38621;52.830;6.914;2023-04-03T09:59:31;9.00;99.90
52725;DHT22;38621;52.830;6.914;2023-04-03T10:02:04;9.10;99.90
52725;DHT22;38621;52.830;6.914;2023-04-03T10:04:45;9.30;99.90
52725;DHT22;38621;52.830;6.914;2023-04-03T10:07:29;9.30;99.90
52725;DHT22;38621;52.830;6.914;2023-04-03T10:10:01;9.30;99.90
52725;DHT22;38621;52.830;6.914;2023-04-03T10:12:28;9.40;99.90
52725;DHT22;38621;52.830;6.914;2023-04-03T10:17:42;9.60;99.90
52725;DHT22;38621;52.830;6.914;2023-04-03T10:23:26;9.70;99.90
52725;DHT22;38621;52.830;6.914;2023-04-03T10:36:59;10.30;99.90
52725;DHT22;38621;52.830;6.914;2023-04-03T10:42:07;10.50;99.90
52725;DHT22;38621;52.830;6.914;2023-04-03T10:44:42;10.70;99.90
52725;DHT22;38621;52.830;6.914;2023-04-03T10:55:36;11.20;99.90
52725;DHT22;38621;52.830;6.914;2023-04-03T10:58:04;11.40;99.90
52725;DHT22;38621;52.830;6.914;2023-04-03T11:00:40;11.60;99.90
52725;DHT22;38621;52.830;6.914;2023-04-03T11:05:53;12.00;99.90
52725;DHT22;38621;52.830;6.914;2023-04-03T11:11:26;12.20;99.90
52725;DHT22;38621;52.830;6.914;2023-04-03T11:14:50;12.20;99.90
52725;DHT22;38621;52.830;6.914;2023-04-03T11:24:59;12.20;99.90
52725;DHT22;38621;52.830;6.914;2023-04-03T11:27:33;12.30;99.90
52725;DHT22;38621;52.830;6.914;2023-04-03T11:30:01;12.30;99.90
52725;DHT22;38621;52.830;6.914;2023-04-03T11:32:52;12.40;99.90
52725;DHT22;38621;52.830;6.914;2023-04-03T11:35:21;12.50;99.90
52725;DHT22;38621;52.830;6.914;2023-04-03T11:37:50;12.70;99.90
52725;DHT22;38621;52.830;6.914;2023-04-03T11:40:29;12.80;99.90
52725;DHT22;38621;52.830;6.914;2023-04-03T11:47:58;12.90;99.90
52725;DHT22;38621;52.830;6.914;2023-04-03T11:50:42;13.00;99.90
52725;DHT22;38621;52.830;6.914;2023-04-03T11:55:59;13.20;99.90
52725;DHT22;38621;52.830;6.914;2023-04-03T11:58:35;13.40;99.90
52725;DHT22;38621;52.830;6.914;2023-04-03T12:13:42;14.30;99.90
52725;DHT22;38621;52.830;6.914;2023-04-03T12:16:24;14.60;99.90
52725;DHT22;38621;52.830;6.914;2023-04-03T12:28:56;15.80;99.90
52725;DHT22;38621;52.830;6.914;2023-04-03T12:31:39;16.10;99.90
52725;DHT22;38621;52.830;6.914;2023-04-03T12:34:24;16.40;99.90
52725;DHT22;38621;52.830;6.914;2023-04-03T12:43:05;17.00;99.90
52725;DHT22;38621;52.830;6.914;2023-04-03T12:45:49;17.10;99.90
52725;DHT22;38621;52.830;6.914;2023-04-03T12:48:22;17.30;99.90
52725;DHT22;38621;52.830;6.914;2023-04-03T12:50:50;17.50;99.90
52725;DHT22;38621;52.830;6.914;2023-04-03T12:53:25;17.60;99.90
52725;DHT22;38621;52.830;6.914;2023-04-03T12:55:56;17.80;99.90
52725;DHT22;38621;52.830;6.914;2023-04-03T12:58:27;18.00;99.90
52725;DHT22;38621;52.830;6.914;2023-04-03T13:01:12;18.30;99.90
52725;DHT22;38621;52.830;6.914;2023-04-03T13:03:42;18.60;99.90
52725;DHT22;38621;52.830;6.914;2023-04-03T13:06:27;18.60;99.90
52725;DHT22;38621;52.830;6.914;2023-04-03T13:08:58;18.50;99.90
52725;DHT22;38621;52.830;6.914;2023-04-03T13:11:27;18.50;99.90
52725;DHT22;38621;52.830;6.914;2023-04-03T13:13:56;18.60;99.90
52725;DHT22;38621;52.830;6.914;2023-04-03T13:16:22;18.60;99.90
52725;DHT22;38621;52.830;6.914;2023-04-03T13:18:53;18.60;99.90
52725;DHT22;38621;52.830;6.914;2023-04-03T13:21:25;18.80;99.90
52725;DHT22;38621;52.830;6.914;2023-04-03T13:23:57;19.10;99.90
52725;DHT22;38621;52.830;6.914;2023-04-03T13:26:25;19.20;99.90
52725;DHT22;38621;52.830;6.914;2023-04-03T13:28:52;19.40;99.90
52725;DHT22;38621;52.830;6.914;2023-04-03T13:31:23;19.60;99.90
52725;DHT22;38621;52.830;6.914;2023-04-03T13:34:05;19.80;99.90
52725;DHT22;38621;52.830;6.914;2023-04-03T13:36:40;20.00;99.90
52725;DHT22;38621;52.830;6.914;2023-04-03T13:41:57;20.00;99.90
52725;DHT22;38621;52.830;6.914;2023-04-03T13:46:59;19.00;99.90
52725;DHT22;38621;52.830;6.914;2023-04-03T13:49:34;18.00;99.90
52725;DHT22;38621;52.830;6.914;2023-04-03T13:52:23;17.10;99.90
52725;DHT22;38621;52.830;6.914;2023-04-03T13:54:53;16.20;99.90
52725;DHT22;38621;52.830;6.914;2023-04-03T13:57:19;15.40;99.90
52725;DHT22;38621;52.830;6.914;2023-04-03T13:59:45;14.90;99.90
52725;DHT22;38621;52.830;6.914;2023-04-03T14:02:17;14.40;99.90
52725;DHT22;38621;52.830;6.914;2023-04-03T14:07:12;14.00;99.90
52725;DHT22;38621;52.830;6.914;2023-04-03T14:09:38;14.00;99.90
52725;DHT22;38621;52.830;6.914;2023-04-03T14:12:13;14.10;99.90
52725;DHT22;38621;52.830;6.914;2023-04-03T14:14:40;14.40;99.90
52725;DHT22;38621;52.830;6.914;2023-04-03T14:17:18;14.20;99.90
52725;DHT22;38621;52.830;6.914;2023-04-03T14:19:45;13.80;99.90
52725;DHT22;38621;52.830;6.914;2023-04-03T14:22:19;13.50;99.90
52725;DHT22;38621;52.830;6.914;2023-04-03T14:24:45;13.10;99.90
52725;DHT22;38621;52.830;6.914;2023-04-03T14:27:42;12.90;99.90
52725;DHT22;38621;52.830;6.914;2023-04-03T14:30:22;12.70;99.90
52725;DHT22;38621;52.830;6.914;2023-04-03T14:32:48;12.50;99.90
52725;DHT22;38621;52.830;6.914;2023-04-03T14:35:14;12.50;99.90
52725;DHT22;38621;52.830;6.914;2023-04-03T14:37:41;12.40;99.90
52725;DHT22;38621;52.830;6.914;2023-04-03T14:40:08;12.50;99.90
52725;DHT22;38621;52.830;6.914;2023-04-03T14:42:36;13.00;99.90
52725;DHT22;38621;52.830;6.914;2023-04-03T14:45:04;13.70;99.90
52725;DHT22;38621;52.830;6.914;2023-04-03T14:47:31;14.50;99.90
52725;DHT22;38621;52.830;6.914;2023-04-03T14:50:01;15.20;99.90
52725;DHT22;38621;52.830;6.914;2023-04-03T14:52:33;15.50;99.90
52725;DHT22;38621;52.830;6.914;2023-04-03T14:55:00;15.60;99.90
52725;DHT22;38621;52.830;6.914;2023-04-03T14:57:28;15.70;99.90
52725;DHT22;38621;52.830;6.914;2023-04-03T14:59:54;15.70;99.90
52725;DHT22;38621;52.830;6.914;2023-04-03T15:02:34;15.40;99.90
52725;DHT22;38621;52.830;6.914;2023-04-03T15:05:02;15.30;99.90
52725;DHT22;38621;52.830;6.914;2023-04-03T15:07:31;15.30;99.90
52725;DHT22;38621;52.830;6.914;2023-04-03T15:12:42;16.30;99.90
52725;DHT22;38621;52.830;6.914;2023-04-03T15:15:08;16.40;99.90
52725;DHT22;38621;52.830;6.914;2023-04-03T15:17:35;16.40;99.90
52725;DHT22;38621;52.830;6.914;2023-04-03T15:20:02;16.40;99.90
52725;DHT22;38621;52.830;6.914;2023-04-03T15:22:28;16.30;99.90
52725;DHT22;38621;52.830;6.914;2023-04-03T15:24:54;16.30;99.90
52725;DHT22;38621;52.830;6.914;2023-04-03T15:27:20;16.10;99.90
52725;DHT22;38621;52.830;6.914;2023-04-03T15:29:46;15.80;99.90
52725;DHT22;38621;52.830;6.914;2023-04-03T15:32:12;15.40;99.90
52725;DHT22;38621;52.830;6.914;2023-04-03T15:34:38;14.90;99.90
52725;DHT22;38621;52.830;6.914;2023-04-03T15:37:04;14.40;99.90
52725;DHT22;38621;52.830;6.914;2023-04-03T15:39:31;14.00;99.90
52725;DHT22;38621;52.830;6.914;2023-04-03T15:41:57;13.70;99.90
52725;DHT22;38621;52.830;6.914;2023-04-03T15:44:25;13.60;99.90
52725;DHT22;38621;52.830;6.914;2023-04-03T15:46:51;13.50;99.90
52725;DHT22;38621;52.830;6.914;2023-04-03T15:49:18;13.40;99.90
52725;DHT22;38621;52.830;6.914;2023-04-03T15:51:45;13.30;99.90
52725;DHT22;38621;52.830;6.914;2023-04-03T15:54:12;13.10;99.90
52725;DHT22;38621;52.830;6.914;2023-04-03T15:56:38;13.10;99.90
52725;DHT22;38621;52.830;6.914;2023-04-03T15:59:04;13.10;99.90
52725;DHT22;38621;52.830;6.914;2023-04-03T16:01:29;13.30;99.90
52725;DHT22;38621;52.830;6.914;2023-04-03T16:03:56;13.60;99.90
52725;DHT22;38621;52.830;6.914;2023-04-03T16:06:24;14.00;99.90
52725;DHT22;38621;52.830;6.914;2023-04-03T16:08:50;14.60;99.90
52725;DHT22;38621;52.830;6.914;2023-04-03T16:11:16;15.00;99.90
52725;DHT22;38621;52.830;6.914;2023-04-03T16:13:43;15.20;99.90
52725;DHT22;38621;52.830;6.914;2023-04-03T16:16:09;15.60;99.90
52725;DHT22;38621;52.830;6.914;2023-04-03T16:18:35;15.80;99.90
52725;DHT22;38621;52.830;6.914;2023-04-03T16:21:01;15.80;99.90
52725;DHT22;38621;52.830;6.914;2023-04-03T16:23:27;15.80;99.90
52725;DHT22;38621;52.830;6.914;2023-04-03T16:25:53;15.90;99.90
52725;DHT22;38621;52.830;6.914;2023-04-03T16:28:18;16.30;99.90
52725;DHT22;38621;52.830;6.914;2023-04-03T16:30:45;16.60;99.90
52725;DHT22;38621;52.830;6.914;2023-04-03T16:33:12;16.80;99.90
52725;DHT22;38621;52.830;6.914;2023-04-03T16:35:39;16.80;99.90
52725;DHT22;38621;52.830;6.914;2023-04-03T16:38:05;17.30;99.90
52725;DHT22;38621;52.830;6.914;2023-04-03T16:40:31;17.80;99.90
52725;DHT22;38621;52.830;6.914;2023-04-03T16:42:59;18.20;99.90
52725;DHT22;38621;52.830;6.914;2023-04-03T16:45:25;18.50;99.90
52725;DHT22;38621;52.830;6.914;2023-04-03T16:47:50;18.60;99.90
52725;DHT22;38621;52.830;6.914;2023-04-03T16:50:16;18.70;99.90
52725;DHT22;38621;52.830;6.914;2023-04-03T16:52:42;18.70;99.90
52725;DHT22;38621;52.830;6.914;2023-04-03T16:55:09;18.80;99.90
52725;DHT22;38621;52.830;6.914;2023-04-03T16:57:34;18.80;99.90
52725;DHT22;38621;52.830;6.914;2023-04-03T17:00:00;18.90;99.90
52725;DHT22;38621;52.830;6.914;2023-04-03T17:02:26;18.80;99.90
52725;DHT22;38621;52.830;6.914;2023-04-03T17:04:53;18.80;99.90
52725;DHT22;38621;52.830;6.914;2023-04-03T17:07:20;18.80;99.90
52725;DHT22;38621;52.830;6.914;2023-04-03T17:09:46;18.80;99.90
52725;DHT22;38621;52.830;6.914;2023-04-03T17:12:11;18.70;99.90
52725;DHT22;38621;52.830;6.914;2023-04-03T17:14:37;18.50;99.90
52725;DHT22;38621;52.830;6.914;2023-04-03T17:17:03;18.00;99.90
52725;DHT22;38621;52.830;6.914;2023-04-03T17:19:29;17.60;99.90
52725;DHT22;38621;52.830;6.914;2023-04-03T17:21:56;17.10;99.90
52725;DHT22;38621;52.830;6.914;2023-04-03T17:24:22;16.80;99.90
52725;DHT22;38621;52.830;6.914;2023-04-03T17:26:48;16.50;99.90
52725;DHT22;38621;52.830;6.914;2023-04-03T17:29:14;16.20;99.90
52725;DHT22;38621;52.830;6.914;2023-04-03T17:31:40;15.80;99.90
52725;DHT22;38621;52.830;6.914;2023-04-03T17:34:07;15.30;99.90